Time;durP1;ratioP1;P1;durP2;ratioP2;P2;SDS_P1;SDS_P2;PMS_P1;PMS_P2;Temp;Humidity;BMP_temperature;BMP_pressure;BME280_temperature;BME280_humidity;BME280_pressure;Samples;Min_cycle;Max_cycle;Signal;HPM_P1;HPM_P2
2022/01/28 00:01:44;;;;;;;641.45;286.92;;;-1.70;99.90;;;;;;5095243;28;20040;-51
2022/01/28 00:04:15;;;;;;;714.17;332.48;;;-1.70;99.90;;;;;;5095325;28;20119;-51
2022/01/28 00:06:41;;;;;;;726.00;327.55;;;-1.60;99.90;;;;;;5095210;28;20421;-51
2022/01/28 00:09:07;;;;;;;716.47;326.13;;;-1.60;99.90;;;;;;5095292;28;20028;-51
2022/01/28 00:11:34;;;;;;;729.58;325.17;;;-1.50;99.90;;;;;;5095184;28;20028;-51
2022/01/28 00:14:25;;;;;;;744.70;324.95;;;-1.40;99.90;;;;;;5095250;28;20040;-51
2022/01/28 00:38:31;;;;;;;560.10;231.27;;;-1.30;99.90;;;;;;5116234;28;20401;-51
2022/01/28 00:40:56;;;;;;;525.22;217.60;;;-1.50;99.90;;;;;;5117435;28;20588;-51
2022/01/28 00:43:22;;;;;;;518.97;217.57;;;-1.50;99.90;;;;;;5116364;28;20110;-51
2022/01/28 00:45:48;;;;;;;551.67;241.00;;;-1.70;99.90;;;;;;5117436;28;20675;-51
2022/01/28 00:48:14;;;;;;;505.58;209.90;;;-1.60;99.90;;;;;;5117319;28;20032;-51
2022/01/28 00:50:43;;;;;;;515.15;217.05;;;-1.70;99.90;;;;;;5117263;28;20062;-51
2022/01/28 00:53:10;;;;;;;519.75;216.80;;;-1.80;99.90;;;;;;5116998;28;20032;-51
2022/01/28 00:55:36;;;;;;;506.23;208.02;;;-1.90;99.90;;;;;;5117185;28;20035;-51
2022/01/28 00:58:03;;;;;;;468.23;195.63;;;-1.90;99.90;;;;;;5117073;28;20027;-51
2022/01/28 01:00:29;;;;;;;410.83;163.13;;;-2.10;99.90;;;;;;5116998;28;20050;-51
2022/01/28 01:02:56;;;;;;;437.42;176.07;;;-2.10;99.90;;;;;;5116908;28;20035;-51
2022/01/28 01:05:22;;;;;;;481.58;200.73;;;-2.10;99.90;;;;;;5117027;28;20034;-51
2022/01/28 01:07:49;;;;;;;519.33;219.23;;;-2.10;99.90;;;;;;5116940;27;20111;-52
2022/01/28 01:10:16;;;;;;;513.63;211.80;;;-2.00;99.90;;;;;;5116798;28;20382;-51
2022/01/28 01:12:45;;;;;;;416.80;169.05;;;-1.90;99.90;;;;;;5116901;28;20023;-51
2022/01/28 01:15:17;;;;;;;411.77;171.48;;;-1.90;99.90;;;;;;5117078;28;20123;-51
2022/01/28 01:22:41;;;;;;;443.88;181.48;;;-2.30;99.90;;;;;;5116630;28;20524;-51
2022/01/28 01:25:22;;;;;;;446.50;181.85;;;-2.30;99.90;;;;;;5116539;28;20059;-51
2022/01/28 01:27:53;;;;;;;466.25;184.05;;;-2.40;99.90;;;;;;5116536;28;20016;-51
2022/01/28 01:30:19;;;;;;;471.88;193.30;;;-2.40;99.90;;;;;;5116327;28;20059;-51
2022/01/28 01:32:45;;;;;;;474.63;193.02;;;-2.30;99.90;;;;;;5116430;28;20034;-51
2022/01/28 01:35:12;;;;;;;463.95;192.40;;;-2.30;99.90;;;;;;5116453;28;20107;-51
2022/01/28 01:37:37;;;;;;;466.60;196.07;;;-2.30;99.90;;;;;;5116401;28;20034;-51
2022/01/28 01:40:05;;;;;;;445.27;179.57;;;-2.30;99.90;;;;;;5116360;28;20024;-51
2022/01/28 01:53:07;;;;;;;440.75;185.75;;;-2.50;99.90;;;;;;5115915;28;20451;-52
2022/01/28 01:55:33;;;;;;;462.38;192.77;;;-2.50;99.90;;;;;;5115930;28;20106;-51
2022/01/28 01:57:59;;;;;;;441.65;181.38;;;-2.60;99.90;;;;;;5116092;28;20057;-51
2022/01/28 02:00:25;;;;;;;437.88;180.73;;;-2.60;99.90;;;;;;5115917;28;20389;-51
2022/01/28 02:02:51;;;;;;;436.35;181.63;;;-2.70;99.90;;;;;;5115942;28;20036;-51
2022/01/28 02:05:17;;;;;;;435.50;176.85;;;-2.70;99.90;;;;;;5115857;28;20112;-51
2022/01/28 02:07:45;;;;;;;426.88;178.68;;;-2.80;99.90;;;;;;5115692;28;20254;-51
2022/01/28 02:10:15;;;;;;;451.35;181.88;;;-2.80;99.90;;;;;;5115767;28;20031;-51
2022/01/28 02:12:59;;;;;;;432.00;178.05;;;-2.90;99.90;;;;;;5115789;28;20030;-51
2022/01/28 02:15:25;;;;;;;409.05;164.48;;;-2.90;99.90;;;;;;5115644;28;20077;-51
2022/01/28 02:17:51;;;;;;;408.73;166.50;;;-2.90;99.90;;;;;;5115332;28;20020;-51
2022/01/28 02:20:28;;;;;;;419.83;165.40;;;-2.80;99.90;;;;;;5115669;28;20040;-51
2022/01/28 02:22:54;;;;;;;422.38;174.55;;;-2.80;99.90;;;;;;5115785;28;20438;-51
2022/01/28 02:25:25;;;;;;;391.45;161.98;;;-2.90;99.90;;;;;;5115478;28;20050;-51
2022/01/28 02:27:51;;;;;;;401.40;164.60;;;-3.00;99.90;;;;;;5115688;28;20027;-51
2022/01/28 02:30:18;;;;;;;379.30;156.93;;;-3.10;99.90;;;;;;5115058;28;20051;-51
2022/01/28 02:32:45;;;;;;;391.88;154.75;;;-3.10;99.90;;;;;;5115228;28;20117;-51
2022/01/28 02:35:11;;;;;;;396.60;162.20;;;-3.10;99.90;;;;;;5115333;28;20290;-51
2022/01/28 02:37:37;;;;;;;373.17;152.10;;;-3.20;99.90;;;;;;5115367;28;20039;-51
2022/01/28 02:40:05;;;;;;;341.98;138.75;;;-3.20;99.90;;;;;;5114969;28;20393;-51
2022/01/28 02:42:59;;;;;;;596.70;203.35;;;-3.20;99.90;;;;;;5115088;28;20398;-51
2022/01/28 02:45:37;;;;;;;552.05;194.13;;;-3.30;99.90;;;;;;5115106;28;20027;-51
2022/01/28 02:48:08;;;;;;;596.22;210.63;;;-3.30;99.90;;;;;;5115104;28;20483;-52
2022/01/28 02:50:43;;;;;;;558.97;204.93;;;-3.30;99.90;;;;;;5114947;28;20110;-51
2022/01/28 02:53:20;;;;;;;577.97;216.15;;;-3.20;99.90;;;;;;5114974;28;20042;-51
2022/01/28 02:55:46;;;;;;;531.53;198.02;;;-3.10;99.90;;;;;;5115079;28;20396;-51
2022/01/28 02:58:18;;;;;;;516.67;195.13;;;-3.20;99.90;;;;;;5114946;28;20030;-51
2022/01/28 03:00:49;;;;;;;535.25;198.63;;;-3.20;99.90;;;;;;5114859;28;20073;-51
2022/01/28 03:03:18;;;;;;;411.15;164.10;;;-3.10;99.90;;;;;;5115089;28;20036;-51
2022/01/28 03:05:45;;;;;;;523.08;182.70;;;-3.00;99.90;;;;;;5114152;28;20028;-51
2022/01/28 03:08:12;;;;;;;452.75;169.95;;;-3.10;99.90;;;;;;5114967;28;20035;-51
2022/01/28 03:10:52;;;;;;;1398.55;451.15;;;-3.20;99.90;;;;;;5114791;28;20016;-51
2022/01/28 03:13:34;;;;;;;692.78;252.45;;;-3.10;99.90;;;;;;5114847;28;20023;-51
2022/01/28 03:16:10;;;;;;;457.80;171.85;;;-3.20;99.90;;;;;;5114713;28;20020;-51
2022/01/28 03:18:48;;;;;;;427.10;163.55;;;-3.20;99.90;;;;;;5114850;28;20026;-51
2022/01/28 03:24:09;;;;;;;514.50;191.25;;;-3.20;99.90;;;;;;5112927;28;20048;-51
2022/01/28 03:26:36;;;;;;;549.35;224.35;;;-3.10;99.90;;;;;;5114648;28;20042;-52
2022/01/28 03:29:02;;;;;;;527.53;215.15;;;-3.00;99.90;;;;;;5114551;28;20093;-52
2022/01/28 03:31:29;;;;;;;484.52;195.40;;;-2.80;99.90;;;;;;5114647;28;20039;-51
2022/01/28 03:33:55;;;;;;;566.28;228.27;;;-2.70;99.90;;;;;;5114791;28;20028;-51
2022/01/28 03:36:21;;;;;;;527.92;218.13;;;-2.70;99.90;;;;;;5114552;28;20042;-51
2022/01/28 03:38:48;;;;;;;506.50;201.02;;;-2.90;99.90;;;;;;5114973;28;20015;-51
2022/01/28 03:41:17;;;;;;;450.40;178.88;;;-3.00;99.90;;;;;;5114382;28;20039;-51
2022/01/28 03:43:50;;;;;;;495.20;195.40;;;-3.00;99.90;;;;;;5114324;28;20028;-51
2022/01/28 03:46:16;;;;;;;480.27;178.43;;;-2.90;99.90;;;;;;5114626;28;20043;-51
2022/01/28 03:48:44;;;;;;;466.45;169.02;;;-3.00;99.90;;;;;;5114605;28;20027;-52
2022/01/28 03:51:10;;;;;;;461.80;170.65;;;-3.00;99.90;;;;;;5114428;28;20023;-51
2022/01/28 03:53:36;;;;;;;460.55;170.75;;;-3.20;99.90;;;;;;5114351;28;20024;-51
2022/01/28 03:56:02;;;;;;;469.52;176.85;;;-3.20;99.90;;;;;;5114398;28;20062;-51
2022/01/28 03:58:28;;;;;;;456.88;174.10;;;-3.30;99.90;;;;;;5114407;28;20028;-51
2022/01/28 04:00:56;;;;;;;459.00;178.70;;;-3.40;99.90;;;;;;5114369;28;20032;-51
2022/01/28 04:13:56;;;;;;;;;;;-3.50;99.90;;;;;;5114783;28;20031;-51
2022/01/28 04:18:49;;;;;;;368.10;144.82;;;-3.40;99.90;;;;;;5116933;28;20028;-51
2022/01/28 04:21:15;;;;;;;329.05;134.13;;;-3.30;99.90;;;;;;5117868;28;20179;-51
2022/01/28 04:23:41;;;;;;;438.63;160.50;;;-3.20;99.90;;;;;;5117801;28;20023;-51
2022/01/28 04:26:07;;;;;;;433.90;167.98;;;-3.30;99.90;;;;;;5117786;28;20031;-51
2022/01/28 04:28:33;;;;;;;412.67;157.65;;;-3.30;99.90;;;;;;5117775;28;20035;-51
2022/01/28 04:30:59;;;;;;;409.17;158.70;;;-3.40;99.90;;;;;;5117906;28;20105;-51
2022/01/28 04:33:26;;;;;;;402.27;156.55;;;-3.60;99.90;;;;;;5117486;28;20034;-51
2022/01/28 04:35:54;;;;;;;391.67;155.90;;;-3.60;99.90;;;;;;5117698;28;20031;-51
2022/01/28 04:41:01;;;;;;;403.40;163.25;;;-3.50;99.90;;;;;;5117240;28;20063;-51
2022/01/28 04:43:35;;;;;;;417.02;161.13;;;-3.60;99.90;;;;;;5117473;28;20043;-51
2022/01/28 04:46:12;;;;;;;406.00;157.10;;;-3.50;99.90;;;;;;5117312;28;20023;-51
2022/01/28 04:49:03;;;;;;;386.90;152.38;;;-3.50;99.90;;;;;;5117430;28;20384;-51
2022/01/28 04:59:25;;;;;;;381.88;149.43;;;-3.50;99.90;;;;;;5117153;28;20389;-51
2022/01/28 05:07:23;;;;;;;388.10;156.27;;;-3.40;99.90;;;;;;5116974;28;20057;-51
2022/01/28 05:15:34;;;;;;;312.33;125.65;;;-3.20;99.90;;;;;;5116779;28;20051;-51
2022/01/28 05:28:45;;;;;;;307.73;129.07;;;-3.30;99.90;;;;;;5116111;28;20043;-51
2022/01/28 05:31:11;;;;;;;316.45;130.93;;;-3.30;99.90;;;;;;5116392;28;20044;-51
2022/01/28 05:33:38;;;;;;;396.88;155.63;;;-3.40;99.90;;;;;;5116309;28;20366;-51
2022/01/28 05:36:04;;;;;;;463.33;167.32;;;-3.30;99.90;;;;;;5116767;27;20096;-51
2022/01/28 05:38:30;;;;;;;489.50;184.80;;;-3.30;99.90;;;;;;5116401;28;20035;-51
2022/01/28 05:40:56;;;;;;;448.65;171.98;;;-3.40;99.90;;;;;;5116134;28;20028;-51
2022/01/28 05:43:22;;;;;;;471.90;185.95;;;-3.60;99.90;;;;;;5116005;28;20452;-51
2022/01/28 05:45:48;;;;;;;441.58;182.13;;;-3.60;99.90;;;;;;5116191;28;20061;-51
2022/01/28 05:48:16;;;;;;;655.13;285.35;;;-3.60;99.90;;;;;;5115821;28;20421;-51
2022/01/28 05:50:42;;;;;;;494.77;203.13;;;-3.70;99.90;;;;;;5116014;28;20168;-51
2022/01/28 05:53:08;;;;;;;393.67;160.23;;;-3.60;99.90;;;;;;5116022;28;20485;-51
2022/01/28 05:55:35;;;;;;;389.83;150.85;;;-3.60;99.90;;;;;;5116290;28;20035;-51
2022/01/28 05:58:01;;;;;;;414.98;154.38;;;-3.50;99.90;;;;;;5115848;28;20028;-51
2022/01/28 06:00:27;;;;;;;397.35;151.43;;;-3.50;99.90;;;;;;5115916;28;20123;-51
2022/01/28 06:02:53;;;;;;;385.63;147.50;;;-3.60;99.90;;;;;;5115723;28;20035;-51
2022/01/28 06:05:19;;;;;;;388.95;149.70;;;-3.60;99.90;;;;;;5115750;28;20031;-51
2022/01/28 06:07:44;;;;;;;352.42;144.60;;;-3.60;99.90;;;;;;5115955;28;20049;-51
2022/01/28 06:10:14;;;;;;;336.27;137.68;;;-3.60;99.90;;;;;;5115698;28;20043;-51
2022/01/28 06:12:46;;;;;;;386.00;141.70;;;-3.60;99.90;;;;;;5115645;28;20462;-51
2022/01/28 06:15:13;;;;;;;290.65;115.38;;;-3.70;99.90;;;;;;5115771;28;20089;-51
2022/01/28 06:17:39;;;;;;;283.98;113.53;;;-3.90;99.90;;;;;;5115445;28;20076;-51
2022/01/28 06:20:08;;;;;;;315.75;129.30;;;-3.80;99.90;;;;;;5115593;28;20023;-51
2022/01/28 06:22:41;;;;;;;365.88;145.52;;;-3.80;99.90;;;;;;5113927;28;20031;-51
2022/01/28 06:25:08;;;;;;;364.20;148.93;;;-3.80;99.90;;;;;;5098090;28;20020;-51
2022/01/28 06:27:35;;;;;;;402.70;163.63;;;-3.60;99.90;;;;;;5110085;28;20125;-51
2022/01/28 06:30:04;;;;;;;395.02;163.15;;;-3.40;99.90;;;;;;5112228;28;20047;-51
2022/01/28 06:32:31;;;;;;;401.40;168.88;;;-3.30;99.90;;;;;;5113015;28;20041;-51
2022/01/28 06:35:00;;;;;;;411.80;172.82;;;-3.30;99.90;;;;;;5114074;28;20028;-51
2022/01/28 06:37:29;;;;;;;472.15;203.02;;;-3.20;99.90;;;;;;5114073;28;20069;-51
2022/01/28 06:39:55;;;;;;;406.20;172.18;;;-3.20;99.90;;;;;;5101275;28;20031;-51
2022/01/28 06:42:21;;;;;;;445.08;186.05;;;-3.10;99.90;;;;;;5109223;28;20127;-51
2022/01/28 06:44:47;;;;;;;378.98;159.15;;;-3.10;99.90;;;;;;5110224;28;20032;-51
2022/01/28 06:47:13;;;;;;;431.60;185.15;;;-2.80;99.90;;;;;;5102110;28;20554;-51
2022/01/28 06:49:39;;;;;;;495.92;219.35;;;-2.50;99.90;;;;;;5115449;28;20051;-51
2022/01/28 06:52:06;;;;;;;476.38;208.50;;;-2.40;99.90;;;;;;5110559;28;20020;-51
2022/01/28 06:54:35;;;;;;;461.08;197.52;;;-2.20;99.90;;;;;;5104111;28;20027;-51
2022/01/28 06:57:01;;;;;;;487.55;217.23;;;-2.10;99.90;;;;;;5111957;28;20024;-51
2022/01/28 06:59:27;;;;;;;495.38;222.35;;;-1.90;99.90;;;;;;5114246;28;20374;-51
2022/01/28 07:01:53;;;;;;;546.88;252.60;;;-1.60;99.90;;;;;;5114892;28;20122;-51
2022/01/28 07:04:20;;;;;;;578.85;277.55;;;-0.90;99.90;;;;;;5114057;28;20051;-52
2022/01/28 07:06:46;;;;;;;614.45;298.10;;;-0.40;99.90;;;;;;5112059;28;20096;-51
2022/01/28 07:09:12;;;;;;;626.78;296.83;;;-0.20;99.90;;;;;;5102100;28;20027;-52
2022/01/28 07:11:38;;;;;;;574.30;271.35;;;0.00;99.90;;;;;;5095315;28;20027;-52
2022/01/28 07:14:04;;;;;;;533.78;243.77;;;0.10;99.90;;;;;;5112052;28;20385;-52
2022/01/28 07:16:30;;;;;;;518.35;233.23;;;0.20;99.90;;;;;;5112192;28;20027;-52
2022/01/28 07:18:56;;;;;;;549.40;249.75;;;0.30;99.90;;;;;;5104787;28;20023;-52
2022/01/28 07:21:25;;;;;;;486.75;217.13;;;0.30;99.90;;;;;;5112674;28;20032;-52
2022/01/28 07:23:51;;;;;;;524.67;240.48;;;0.20;99.90;;;;;;5114183;28;20028;-52
2022/01/28 07:26:17;;;;;;;564.58;267.08;;;0.20;99.90;;;;;;5114291;28;20031;-52
2022/01/28 07:28:43;;;;;;;555.45;269.20;;;0.00;99.90;;;;;;5110953;28;20027;-52
2022/01/28 07:31:10;;;;;;;543.15;251.77;;;0.00;99.90;;;;;;5112898;28;20050;-52
2022/01/28 07:33:36;;;;;;;511.27;223.18;;;0.00;99.90;;;;;;5113351;28;20019;-51
2022/01/28 07:36:02;;;;;;;496.75;219.52;;;0.00;99.90;;;;;;5114412;28;20028;-52
2022/01/28 07:38:28;;;;;;;473.50;207.65;;;-0.20;99.90;;;;;;5112315;28;20039;-52
2022/01/28 07:40:57;;;;;;;474.65;216.65;;;-0.10;99.90;;;;;;5102853;28;20035;-51
2022/01/28 07:43:23;;;;;;;474.67;216.63;;;-0.30;99.90;;;;;;5112784;28;20028;-52
2022/01/28 07:45:52;;;;;;;480.17;214.80;;;-0.40;99.90;;;;;;5112047;28;20035;-51
2022/01/28 07:48:18;;;;;;;467.80;214.85;;;-0.60;99.90;;;;;;5113407;28;20028;-51
2022/01/28 07:50:44;;;;;;;471.92;213.35;;;-0.70;99.90;;;;;;5112164;28;20410;-51
2022/01/28 07:53:19;;;;;;;471.90;213.75;;;-0.80;99.90;;;;;;5116890;28;20110;-52
2022/01/28 07:55:45;;;;;;;468.52;212.40;;;-0.60;99.90;;;;;;5116719;28;20055;-51
2022/01/28 07:58:11;;;;;;;470.77;215.35;;;-0.50;99.90;;;;;;5117156;28;20071;-52
2022/01/28 08:00:37;;;;;;;495.70;219.25;;;-0.60;99.90;;;;;;5108406;28;20106;-51
2022/01/28 08:03:04;;;;;;;489.80;223.88;;;-0.50;99.90;;;;;;5115738;28;20050;-52
2022/01/28 08:05:30;;;;;;;493.67;225.20;;;-0.50;99.90;;;;;;5115476;27;20019;-52
2022/01/28 08:07:58;;;;;;;533.25;241.98;;;-0.30;99.90;;;;;;5118442;28;20048;-52
2022/01/28 08:10:24;;;;;;;537.30;248.50;;;-0.20;99.90;;;;;;5118121;27;20031;-52
2022/01/28 08:12:52;;;;;;;524.55;238.70;;;-0.10;99.90;;;;;;5116313;27;20035;-52
2022/01/28 08:15:19;;;;;;;516.22;241.07;;;0.10;99.90;;;;;;5111814;28;20443;-51
2022/01/28 08:17:46;;;;;;;514.42;238.45;;;0.20;99.90;;;;;;5113875;28;20049;-52
2022/01/28 08:20:13;;;;;;;507.25;239.40;;;0.40;99.90;;;;;;5109859;28;20035;-52
2022/01/28 08:22:50;;;;;;;494.15;221.55;;;0.50;99.90;;;;;;5103008;27;20031;-51
2022/01/28 08:25:18;;;;;;;469.83;219.35;;;0.50;99.90;;;;;;5118402;28;20030;-51
2022/01/28 08:27:46;;;;;;;481.70;231.38;;;0.70;99.90;;;;;;5117936;28;20058;-52
2022/01/28 08:30:13;;;;;;;489.02;227.32;;;0.80;99.90;;;;;;5116833;28;20152;-51
2022/01/28 08:32:40;;;;;;;464.17;216.98;;;0.90;99.90;;;;;;5117449;27;20110;-51
2022/01/28 08:35:07;;;;;;;479.27;222.38;;;0.90;99.90;;;;;;5117373;28;20028;-51
2022/01/28 08:37:33;;;;;;;478.17;220.65;;;0.90;99.90;;;;;;5117242;28;20035;-51
2022/01/28 08:40:00;;;;;;;464.25;213.77;;;1.10;99.90;;;;;;5117466;28;20591;-52
2022/01/28 08:42:27;;;;;;;455.15;208.35;;;1.10;99.90;;;;;;5116750;28;20027;-51
2022/01/28 08:44:53;;;;;;;454.75;213.48;;;1.10;99.90;;;;;;5117003;28;20157;-51
2022/01/28 08:47:19;;;;;;;459.65;207.18;;;1.10;99.90;;;;;;5110943;28;20080;-51
2022/01/28 08:49:46;;;;;;;416.48;189.80;;;1.20;99.90;;;;;;5113919;28;20479;-52
2022/01/28 08:52:12;;;;;;;416.95;189.95;;;1.20;99.90;;;;;;5112106;28;20028;-51
2022/01/28 08:54:40;;;;;;;424.63;189.60;;;1.30;99.90;;;;;;5099265;27;20042;-52
2022/01/28 08:57:06;;;;;;;446.15;206.52;;;1.30;99.90;;;;;;5116600;28;20538;-51
2022/01/28 08:59:32;;;;;;;409.80;190.02;;;1.20;99.90;;;;;;5116583;28;20059;-51
2022/01/28 09:01:58;;;;;;;422.77;198.90;;;1.30;99.90;;;;;;5117174;28;20430;-51
2022/01/28 09:04:24;;;;;;;454.70;212.40;;;1.30;99.90;;;;;;5115693;28;20214;-51
2022/01/28 09:06:50;;;;;;;433.55;198.38;;;1.20;99.90;;;;;;5117098;28;20110;-52
2022/01/28 09:09:19;;;;;;;431.42;192.13;;;1.30;99.90;;;;;;5116934;28;20063;-51
2022/01/28 09:11:52;;;;;;;421.65;189.55;;;1.40;99.90;;;;;;5096217;28;20070;-51
2022/01/28 09:14:20;;;;;;;439.17;209.30;;;1.50;99.90;;;;;;5113083;27;20032;-51
2022/01/28 09:16:47;;;;;;;379.60;181.07;;;1.40;99.90;;;;;;5116179;28;20020;-52
2022/01/28 09:19:14;;;;;;;378.13;179.18;;;1.50;99.90;;;;;;5115635;28;20034;-51
2022/01/28 09:21:45;;;;;;;372.05;169.90;;;1.50;99.90;;;;;;5114464;28;20070;-51
2022/01/28 09:24:11;;;;;;;404.50;192.05;;;1.50;99.90;;;;;;5113191;27;20063;-52
2022/01/28 09:26:37;;;;;;;406.15;195.98;;;1.50;99.90;;;;;;5111711;28;20024;-52
2022/01/28 09:29:04;;;;;;;440.30;206.77;;;1.40;99.90;;;;;;5116793;28;20035;-52
2022/01/28 09:31:30;;;;;;;504.48;243.10;;;1.40;99.90;;;;;;5116417;27;20087;-52
2022/01/28 09:33:56;;;;;;;565.85;276.40;;;1.30;99.90;;;;;;5116589;28;20031;-51
2022/01/28 09:36:22;;;;;;;557.03;267.52;;;1.10;99.90;;;;;;5117040;28;20094;-51
2022/01/28 09:38:49;;;;;;;557.22;272.70;;;1.10;99.90;;;;;;5110379;28;20032;-52
2022/01/28 09:41:16;;;;;;;554.55;271.52;;;1.10;99.90;;;;;;5105416;28;20027;-52
2022/01/28 09:43:44;;;;;;;537.28;268.15;;;1.10;99.90;;;;;;5114486;28;20375;-52
2022/01/28 09:46:10;;;;;;;541.00;264.95;;;1.10;99.90;;;;;;5116440;28;20031;-52
2022/01/28 09:48:37;;;;;;;531.33;265.92;;;1.20;99.90;;;;;;5116579;28;20032;-51
2022/01/28 09:51:04;;;;;;;520.47;262.25;;;1.20;99.90;;;;;;5114753;28;20103;-51
2022/01/28 09:53:30;;;;;;;527.42;264.48;;;1.30;99.90;;;;;;5110570;28;20737;-51
2022/01/28 09:55:57;;;;;;;532.38;266.30;;;1.30;99.90;;;;;;5110497;28;20051;-51
2022/01/28 09:58:23;;;;;;;524.08;265.50;;;1.40;99.90;;;;;;5103247;28;20035;-52
2022/01/28 10:00:50;;;;;;;526.95;265.08;;;1.40;99.90;;;;;;5116025;28;20027;-51
2022/01/28 10:03:17;;;;;;;501.55;256.52;;;1.60;99.90;;;;;;5116456;28;20042;-51
2022/01/28 10:05:50;;;;;;;513.70;261.02;;;1.60;99.90;;;;;;5116067;28;20076;-52
2022/01/28 10:08:27;;;;;;;509.48;257.55;;;1.70;99.90;;;;;;5116457;28;20023;-51
2022/01/28 10:11:07;;;;;;;499.05;260.85;;;1.70;99.90;;;;;;5116297;28;20518;-51
2022/01/28 10:16:30;;;;;;;502.02;254.02;;;1.80;99.90;;;;;;5115786;28;20039;-52
2022/01/28 10:19:00;;;;;;;489.33;246.27;;;2.00;99.90;;;;;;5105232;28;20465;-52
2022/01/28 10:21:36;;;;;;;481.13;237.75;;;2.10;99.90;;;;;;5115159;28;20405;-52
2022/01/28 10:24:17;;;;;;;482.40;241.25;;;2.30;99.90;;;;;;5107456;28;20039;-51
2022/01/28 10:26:54;;;;;;;475.58;240.48;;;2.50;99.90;;;;;;5094791;28;20027;-52
2022/01/28 10:29:32;;;;;;;483.50;241.45;;;2.70;99.90;;;;;;5094613;28;20044;-52
2022/01/28 10:32:03;;;;;;;476.85;235.85;;;2.70;99.90;;;;;;5094811;28;20040;-52
2022/01/28 10:34:33;;;;;;;470.27;233.85;;;2.70;99.90;;;;;;5114629;28;20020;-51
2022/01/28 10:37:11;;;;;;;462.35;231.30;;;2.80;99.90;;;;;;5115200;28;20023;-52
2022/01/28 10:39:41;;;;;;;462.88;231.82;;;2.70;99.90;;;;;;5115218;28;20019;-52
2022/01/28 10:42:08;;;;;;;444.30;220.75;;;2.70;99.90;;;;;;5114510;28;20047;-51
2022/01/28 10:44:57;;;;;;;445.58;218.73;;;2.80;99.90;;;;;;5105778;28;20046;-52
2022/01/28 10:47:51;;;;;;;427.55;215.23;;;2.90;99.90;;;;;;5114983;28;20042;-51
2022/01/28 10:50:32;;;;;;;434.42;214.93;;;2.90;99.90;;;;;;5112599;28;20058;-56
2022/01/28 10:53:16;;;;;;;438.58;214.65;;;3.10;99.90;;;;;;5105362;28;20046;-51
2022/01/28 10:56:00;;;;;;;447.98;218.15;;;3.20;99.90;;;;;;5094443;28;20031;-52
2022/01/28 10:58:28;;;;;;;421.05;209.10;;;3.10;99.90;;;;;;5103747;28;20465;-52
2022/01/28 11:00:58;;;;;;;421.55;210.20;;;3.30;99.90;;;;;;5094225;28;20033;-52
2022/01/28 11:03:28;;;;;;;411.85;202.00;;;3.30;99.90;;;;;;5095420;28;20032;-52
2022/01/28 11:05:58;;;;;;;411.02;202.23;;;3.50;99.90;;;;;;5109732;28;20104;-52
2022/01/28 11:08:26;;;;;;;408.38;204.70;;;3.50;99.90;;;;;;5112119;28;20028;-52
2022/01/28 11:10:52;;;;;;;363.95;173.77;;;3.60;99.90;;;;;;5114292;28;20020;-52
2022/01/28 11:13:18;;;;;;;400.73;189.20;;;3.60;99.90;;;;;;5106069;28;20032;-52
2022/01/28 11:15:45;;;;;;;396.67;179.43;;;3.80;99.90;;;;;;5112811;28;20300;-52
2022/01/28 11:18:11;;;;;;;379.30;185.25;;;3.90;99.90;;;;;;5113489;28;20051;-52
2022/01/28 11:20:51;;;;;;;405.60;196.77;;;4.10;99.90;;;;;;5114786;28;20092;-52
2022/01/28 11:23:35;;;;;;;471.67;216.15;;;4.30;99.90;;;;;;5113894;28;20376;-52
2022/01/28 11:26:14;;;;;;;447.23;217.55;;;4.50;99.90;;;;;;5113712;28;20028;-52
2022/01/28 11:29:02;;;;;;;452.02;209.35;;;4.60;99.90;;;;;;5116533;28;20027;-52
2022/01/28 11:31:48;;;;;;;474.15;224.43;;;4.90;99.90;;;;;;5113858;28;20051;-52
2022/01/28 11:34:21;;;;;;;468.15;217.77;;;5.00;99.90;;;;;;5115905;28;20031;-52
2022/01/28 11:36:48;;;;;;;424.30;201.85;;;5.40;99.90;;;;;;5117993;28;20023;-53
2022/01/28 11:39:36;;;;;;;423.90;208.30;;;5.50;99.90;;;;;;5118357;28;20028;-52
2022/01/28 11:42:22;;;;;;;397.48;190.38;;;5.70;99.90;;;;;;5116981;28;20058;-52
2022/01/28 11:44:59;;;;;;;345.67;163.80;;;5.80;99.90;;;;;;5117683;28;20035;-52
2022/01/28 11:47:28;;;;;;;278.27;137.18;;;5.80;99.90;;;;;;5115111;28;20020;-52
2022/01/28 11:50:18;;;;;;;285.15;137.38;;;5.90;99.90;;;;;;5116719;28;20027;-53
2022/01/28 11:52:49;;;;;;;310.17;139.45;;;6.00;99.90;;;;;;5117587;28;20075;-52
2022/01/28 11:55:20;;;;;;;300.63;133.38;;;5.80;99.90;;;;;;5117950;28;20031;-53
2022/01/28 11:58:06;;;;;;;313.60;131.38;;;5.80;99.90;;;;;;5117982;28;20110;-53
2022/01/28 12:00:40;;;;;;;284.55;127.85;;;5.70;99.90;;;;;;5118062;28;20031;-52
2022/01/28 12:03:26;;;;;;;335.60;149.75;;;5.80;99.90;;;;;;5111508;28;20491;-52
2022/01/28 12:05:56;;;;;;;346.15;156.25;;;5.60;99.90;;;;;;5099762;28;20078;-52
2022/01/28 12:08:30;;;;;;;415.20;197.15;;;5.60;99.90;;;;;;5107505;28;20028;-53
2022/01/28 12:10:57;;;;;;;413.48;192.80;;;5.70;99.90;;;;;;5117402;28;20027;-52
2022/01/28 12:14:02;;;;;;;374.10;180.00;;;5.90;99.90;;;;;;5117301;28;20103;-53
2022/01/28 12:16:30;;;;;;;369.00;178.38;;;6.10;99.90;;;;;;5109872;28;20042;-53
2022/01/28 12:18:58;;;;;;;385.15;181.35;;;6.10;99.90;;;;;;5104166;27;20107;-52
2022/01/28 12:21:34;;;;;;;395.73;178.75;;;6.20;99.90;;;;;;5113124;28;20028;-53
2022/01/28 12:24:18;;;;;;;376.58;172.02;;;6.40;99.90;;;;;;5117108;28;20034;-53
2022/01/28 12:27:03;;;;;;;369.45;152.68;;;6.50;99.90;;;;;;5110567;28;20050;-53
2022/01/28 12:29:31;;;;;;;345.77;158.25;;;6.60;99.90;;;;;;5111203;28;20081;-53
2022/01/28 12:32:04;;;;;;;339.40;158.13;;;6.70;99.90;;;;;;5116922;28;20107;-53
2022/01/28 12:34:34;;;;;;;323.05;153.55;;;6.80;99.90;;;;;;5096778;28;20477;-53
2022/01/28 12:37:03;;;;;;;322.08;147.77;;;6.80;99.90;;;;;;5096500;28;20020;-52
2022/01/28 12:39:34;;;;;;;322.17;147.00;;;6.80;99.90;;;;;;5095538;27;20039;-53
2022/01/28 12:42:10;;;;;;;324.60;145.45;;;6.80;99.90;;;;;;5096502;28;20097;-53
2022/01/28 12:44:49;;;;;;;309.17;143.15;;;6.80;99.90;;;;;;5115791;28;20028;-53
2022/01/28 12:47:16;;;;;;;271.77;128.20;;;7.00;99.90;;;;;;5103490;28;20481;-53
2022/01/28 12:49:46;;;;;;;260.55;121.90;;;7.40;99.90;;;;;;5110104;28;20063;-53
2022/01/28 12:52:12;;;;;;;247.05;115.93;;;7.70;99.90;;;;;;5105592;28;20515;-53
2022/01/28 12:54:52;;;;;;;260.63;118.70;;;8.10;99.90;;;;;;5096223;28;20028;-53
2022/01/28 12:57:22;;;;;;;252.52;115.18;;;8.60;99.60;;;;;;5103845;28;20031;-53
2022/01/28 12:59:49;;;;;;;214.95;101.40;;;8.70;98.40;;;;;;5114955;28;20038;-53
2022/01/28 13:02:17;;;;;;;210.10;102.68;;;8.90;97.60;;;;;;5116431;27;20032;-53
2022/01/28 13:10:23;;;;;;;159.93;77.68;;;8.70;98.50;;;;;;5111033;28;20031;-53
2022/01/28 13:12:49;;;;;;;208.60;90.20;;;8.50;99.70;;;;;;5100249;28;20050;-53
2022/01/28 13:15:16;;;;;;;197.95;96.35;;;8.30;99.80;;;;;;5103899;28;20042;-53
2022/01/28 13:17:55;;;;;;;206.57;96.63;;;8.10;99.90;;;;;;5101275;28;20039;-53
2022/01/28 13:20:22;;;;;;;234.60;106.32;;;8.00;99.90;;;;;;5111748;28;20031;-53
2022/01/28 13:22:52;;;;;;;217.23;102.38;;;7.80;99.90;;;;;;5108481;28;20036;-53
2022/01/28 13:25:29;;;;;;;204.88;100.30;;;7.50;99.90;;;;;;5108997;27;20031;-53
2022/01/28 13:28:00;;;;;;;200.48;100.32;;;7.40;99.90;;;;;;5099001;28;20024;-53
2022/01/28 13:30:28;;;;;;;192.63;95.78;;;7.30;99.90;;;;;;5114292;27;20591;-53
2022/01/28 13:33:03;;;;;;;200.77;95.57;;;7.20;99.90;;;;;;5114525;28;20028;-53
2022/01/28 13:35:29;;;;;;;201.45;99.60;;;7.20;99.90;;;;;;5115489;28;20118;-53
2022/01/28 13:38:02;;;;;;;230.70;116.72;;;7.30;99.90;;;;;;5111576;28;20059;-53
2022/01/28 13:40:34;;;;;;;183.77;89.38;;;7.50;99.90;;;;;;5110292;28;20058;-53
2022/01/28 13:43:11;;;;;;;182.02;89.72;;;7.60;99.90;;;;;;5113504;28;20055;-53
2022/01/28 13:45:40;;;;;;;224.95;110.68;;;7.70;99.90;;;;;;5112062;28;20066;-53
2022/01/28 13:48:15;;;;;;;235.40;110.18;;;7.60;99.90;;;;;;5112755;27;20445;-53
2022/01/28 13:50:44;;;;;;;188.27;90.00;;;7.80;99.90;;;;;;5108472;28;20062;-53
2022/01/28 13:55:59;;;;;;;228.55;113.45;;;8.10;99.90;;;;;;5096032;28;20052;-53
2022/01/28 13:58:27;;;;;;;196.55;94.80;;;8.50;99.90;;;;;;5103523;28;20043;-53
2022/01/28 14:00:53;;;;;;;194.90;90.78;;;8.90;99.90;;;;;;5114567;28;20061;-53
2022/01/28 14:03:27;;;;;;;195.07;86.28;;;9.40;99.90;;;;;;5106707;28;20059;-53